sensor_id;sensor_type;location;lat;lon;timestamp;P1;durP1;ratioP1;P2;durP2;ratioP2
23390;SDS011;11868;45.606;5.302;2022-10-30T00:01:19;16.58;;;5.90;;
23390;SDS011;11868;45.606;5.302;2022-10-30T00:03:44;15.65;;;6.15;;
23390;SDS011;11868;45.606;5.302;2022-10-30T00:06:10;20.50;;;6.28;;
23390;SDS011;11868;45.606;5.302;2022-10-30T00:08:35;13.93;;;5.78;;
23390;SDS011;11868;45.606;5.302;2022-10-30T00:11:08;17.23;;;6.32;;
23390;SDS011;11868;45.606;5.302;2022-10-30T00:13:35;20.50;;;6.40;;
23390;SDS011;11868;45.606;5.302;2022-10-30T00:16:03;17.92;;;5.78;;
23390;SDS011;11868;45.606;5.302;2022-10-30T00:18:30;19.33;;;5.78;;
23390;SDS011;11868;45.606;5.302;2022-10-30T00:20:55;15.93;;;5.90;;
23390;SDS011;11868;45.606;5.302;2022-10-30T00:23:21;20.60;;;6.93;;
23390;SDS011;11868;45.606;5.302;2022-10-30T00:25:46;17.90;;;6.05;;
23390;SDS011;11868;45.606;5.302;2022-10-30T00:28:11;15.93;;;5.88;;
23390;SDS011;11868;45.606;5.302;2022-10-30T00:30:37;13.80;;;5.78;;
23390;SDS011;11868;45.606;5.302;2022-10-30T00:33:02;16.25;;;6.22;;
23390;SDS011;11868;45.606;5.302;2022-10-30T00:35:28;21.55;;;6.32;;
23390;SDS011;11868;45.606;5.302;2022-10-30T00:37:54;10.50;;;5.43;;
23390;SDS011;11868;45.606;5.302;2022-10-30T00:40:19;15.95;;;5.93;;
23390;SDS011;11868;45.606;5.302;2022-10-30T00:42:45;18.35;;;6.22;;
23390;SDS011;11868;45.606;5.302;2022-10-30T00:45:11;17.17;;;5.93;;
23390;SDS011;11868;45.606;5.302;2022-10-30T00:47:38;20.15;;;5.95;;
23390;SDS011;11868;45.606;5.302;2022-10-30T00:50:11;27.70;;;6.43;;
23390;SDS011;11868;45.606;5.302;2022-10-30T00:52:39;14.82;;;6.38;;
23390;SDS011;11868;45.606;5.302;2022-10-30T00:55:09;11.20;;;5.72;;
23390;SDS011;11868;45.606;5.302;2022-10-30T00:57:38;21.30;;;6.60;;
23390;SDS011;11868;45.606;5.302;2022-10-30T01:00:05;18.27;;;6.10;;
23390;SDS011;11868;45.606;5.302;2022-10-30T01:02:31;15.82;;;5.65;;
23390;SDS011;11868;45.606;5.302;2022-10-30T01:04:57;17.27;;;6.07;;
23390;SDS011;11868;45.606;5.302;2022-10-30T01:07:22;20.30;;;6.88;;
23390;SDS011;11868;45.606;5.302;2022-10-30T01:09:48;18.88;;;5.68;;
23390;SDS011;11868;45.606;5.302;2022-10-30T01:12:13;21.48;;;6.53;;
23390;SDS011;11868;45.606;5.302;2022-10-30T01:14:41;21.42;;;6.22;;
23390;SDS011;11868;45.606;5.302;2022-10-30T01:20:18;13.57;;;6.35;;
23390;SDS011;11868;45.606;5.302;2022-10-30T01:28:17;18.05;;;6.45;;
23390;SDS011;11868;45.606;5.302;2022-10-30T01:30:47;14.02;;;6.30;;
23390;SDS011;11868;45.606;5.302;2022-10-30T01:36:12;17.40;;;6.25;;
23390;SDS011;11868;45.606;5.302;2022-10-30T01:38:41;17.13;;;5.75;;
23390;SDS011;11868;45.606;5.302;2022-10-30T01:41:10;15.93;;;6.22;;
23390;SDS011;11868;45.606;5.302;2022-10-30T01:43:35;14.93;;;5.70;;
23390;SDS011;11868;45.606;5.302;2022-10-30T01:48:52;15.80;;;6.40;;
23390;SDS011;11868;45.606;5.302;2022-10-30T01:59:44;21.63;;;6.70;;
23390;SDS011;11868;45.606;5.302;2022-10-30T02:02:12;20.80;;;6.43;;
23390;SDS011;11868;45.606;5.302;2022-10-30T02:04:37;14.05;;;6.00;;
23390;SDS011;11868;45.606;5.302;2022-10-30T02:07:03;11.43;;;5.90;;
23390;SDS011;11868;45.606;5.302;2022-10-30T02:09:28;16.30;;;5.97;;
23390;SDS011;11868;45.606;5.302;2022-10-30T02:11:54;15.38;;;5.95;;
23390;SDS011;11868;45.606;5.302;2022-10-30T02:14:20;16.13;;;6.13;;
23390;SDS011;11868;45.606;5.302;2022-10-30T02:16:49;13.73;;;5.47;;
23390;SDS011;11868;45.606;5.302;2022-10-30T02:19:16;15.93;;;6.07;;
23390;SDS011;11868;45.606;5.302;2022-10-30T02:21:41;12.27;;;6.00;;
23390;SDS011;11868;45.606;5.302;2022-10-30T02:24:07;15.48;;;6.30;;
23390;SDS011;11868;45.606;5.302;2022-10-30T02:26:32;18.70;;;6.10;;
23390;SDS011;11868;45.606;5.302;2022-10-30T02:28:58;17.55;;;5.85;;
23390;SDS011;11868;45.606;5.302;2022-10-30T02:31:23;14.65;;;6.03;;
23390;SDS011;11868;45.606;5.302;2022-10-30T02:33:48;17.55;;;6.13;;
23390;SDS011;11868;45.606;5.302;2022-10-30T02:36:14;18.73;;;6.28;;
23390;SDS011;11868;45.606;5.302;2022-10-30T02:38:39;18.90;;;6.28;;
23390;SDS011;11868;45.606;5.302;2022-10-30T02:41:05;17.52;;;5.82;;
23390;SDS011;11868;45.606;5.302;2022-10-30T02:43:31;15.75;;;5.68;;
23390;SDS011;11868;45.606;5.302;2022-10-30T02:45:56;15.18;;;5.53;;
23390;SDS011;11868;45.606;5.302;2022-10-30T02:48:21;16.35;;;6.13;;
23390;SDS011;11868;45.606;5.302;2022-10-30T02:50:47;18.75;;;5.95;;
23390;SDS011;11868;45.606;5.302;2022-10-30T02:53:12;16.35;;;6.03;;
23390;SDS011;11868;45.606;5.302;2022-10-30T02:55:37;19.38;;;5.97;;
23390;SDS011;11868;45.606;5.302;2022-10-30T02:58:03;11.02;;;5.30;;
23390;SDS011;11868;45.606;5.302;2022-10-30T03:00:28;13.65;;;6.03;;
23390;SDS011;11868;45.606;5.302;2022-10-30T03:02:54;16.50;;;5.82;;
23390;SDS011;11868;45.606;5.302;2022-10-30T03:05:20;14.25;;;6.25;;
23390;SDS011;11868;45.606;5.302;2022-10-30T03:07:45;13.10;;;5.70;;
23390;SDS011;11868;45.606;5.302;2022-10-30T03:10:13;21.65;;;6.05;;
23390;SDS011;11868;45.606;5.302;2022-10-30T03:12:38;13.20;;;5.55;;
23390;SDS011;11868;45.606;5.302;2022-10-30T03:15:04;14.05;;;5.13;;
23390;SDS011;11868;45.606;5.302;2022-10-30T03:17:30;14.75;;;4.95;;
23390;SDS011;11868;45.606;5.302;2022-10-30T03:19:55;15.02;;;5.82;;
23390;SDS011;11868;45.606;5.302;2022-10-30T03:22:21;15.05;;;6.13;;
23390;SDS011;11868;45.606;5.302;2022-10-30T03:24:46;13.95;;;5.65;;
23390;SDS011;11868;45.606;5.302;2022-10-30T03:27:11;14.98;;;5.65;;
23390;SDS011;11868;45.606;5.302;2022-10-30T03:29:37;20.80;;;6.15;;
23390;SDS011;11868;45.606;5.302;2022-10-30T03:32:02;16.83;;;5.85;;
23390;SDS011;11868;45.606;5.302;2022-10-30T03:34:27;15.02;;;5.35;;
23390;SDS011;11868;45.606;5.302;2022-10-30T03:36:53;15.80;;;5.95;;
23390;SDS011;11868;45.606;5.302;2022-10-30T03:39:18;18.55;;;5.40;;
23390;SDS011;11868;45.606;5.302;2022-10-30T03:41:43;13.00;;;5.20;;
23390;SDS011;11868;45.606;5.302;2022-10-30T03:44:09;10.60;;;5.30;;
23390;SDS011;11868;45.606;5.302;2022-10-30T03:46:34;11.25;;;5.15;;
23390;SDS011;11868;45.606;5.302;2022-10-30T03:48:59;15.50;;;5.50;;
23390;SDS011;11868;45.606;5.302;2022-10-30T03:51:25;16.23;;;5.82;;
23390;SDS011;11868;45.606;5.302;2022-10-30T03:53:50;17.98;;;5.18;;
23390;SDS011;11868;45.606;5.302;2022-10-30T03:56:16;14.23;;;5.32;;
23390;SDS011;11868;45.606;5.302;2022-10-30T03:58:41;13.88;;;5.22;;
23390;SDS011;11868;45.606;5.302;2022-10-30T04:01:06;11.90;;;5.00;;
23390;SDS011;11868;45.606;5.302;2022-10-30T04:03:32;16.55;;;5.97;;
23390;SDS011;11868;45.606;5.302;2022-10-30T04:05:58;13.43;;;6.13;;
23390;SDS011;11868;45.606;5.302;2022-10-30T04:08:23;18.15;;;5.72;;
23390;SDS011;11868;45.606;5.302;2022-10-30T04:10:48;14.88;;;5.82;;
23390;SDS011;11868;45.606;5.302;2022-10-30T04:13:15;19.75;;;5.70;;
23390;SDS011;11868;45.606;5.302;2022-10-30T04:15:41;13.00;;;5.20;;
23390;SDS011;11868;45.606;5.302;2022-10-30T04:18:09;13.98;;;5.80;;
23390;SDS011;11868;45.606;5.302;2022-10-30T04:20:35;18.45;;;5.57;;
23390;SDS011;11868;45.606;5.302;2022-10-30T04:23:02;14.05;;;5.72;;
23390;SDS011;11868;45.606;5.302;2022-10-30T04:25:29;21.33;;;5.68;;
23390;SDS011;11868;45.606;5.302;2022-10-30T04:27:55;18.38;;;5.53;;
23390;SDS011;11868;45.606;5.302;2022-10-30T04:30:21;11.27;;;5.15;;
23390;SDS011;11868;45.606;5.302;2022-10-30T04:32:49;14.32;;;6.28;;
23390;SDS011;11868;45.606;5.302;2022-10-30T04:35:16;11.40;;;5.35;;
23390;SDS011;11868;45.606;5.302;2022-10-30T04:37:50;15.68;;;5.47;;
23390;SDS011;11868;45.606;5.302;2022-10-30T04:40:22;13.80;;;5.30;;
23390;SDS011;11868;45.606;5.302;2022-10-30T04:42:49;13.45;;;5.05;;
23390;SDS011;11868;45.606;5.302;2022-10-30T04:45:15;13.75;;;5.93;;
23390;SDS011;11868;45.606;5.302;2022-10-30T04:47:41;17.33;;;5.75;;
23390;SDS011;11868;45.606;5.302;2022-10-30T04:50:06;12.85;;;5.38;;
23390;SDS011;11868;45.606;5.302;2022-10-30T04:52:32;20.13;;;6.20;;
23390;SDS011;11868;45.606;5.302;2022-10-30T04:54:57;17.83;;;5.53;;
23390;SDS011;11868;45.606;5.302;2022-10-30T04:57:23;12.45;;;5.40;;
23390;SDS011;11868;45.606;5.302;2022-10-30T04:59:48;19.27;;;5.75;;
23390;SDS011;11868;45.606;5.302;2022-10-30T05:02:13;14.00;;;5.50;;
23390;SDS011;11868;45.606;5.302;2022-10-30T05:04:39;21.13;;;5.57;;
23390;SDS011;11868;45.606;5.302;2022-10-30T05:07:04;14.75;;;5.53;;
23390;SDS011;11868;45.606;5.302;2022-10-30T05:09:31;13.65;;;5.57;;
23390;SDS011;11868;45.606;5.302;2022-10-30T05:11:56;14.38;;;4.80;;
23390;SDS011;11868;45.606;5.302;2022-10-30T05:14:22;13.82;;;5.07;;
23390;SDS011;11868;45.606;5.302;2022-10-30T05:16:47;16.90;;;5.15;;
23390;SDS011;11868;45.606;5.302;2022-10-30T05:19:12;15.10;;;5.00;;
23390;SDS011;11868;45.606;5.302;2022-10-30T05:21:38;15.73;;;4.90;;
23390;SDS011;11868;45.606;5.302;2022-10-30T05:24:03;12.93;;;4.80;;
23390;SDS011;11868;45.606;5.302;2022-10-30T05:26:29;11.52;;;5.15;;
23390;SDS011;11868;45.606;5.302;2022-10-30T05:28:54;18.55;;;5.35;;
23390;SDS011;11868;45.606;5.302;2022-10-30T05:31:19;15.38;;;5.70;;
23390;SDS011;11868;45.606;5.302;2022-10-30T05:33:45;10.63;;;5.28;;
23390;SDS011;11868;45.606;5.302;2022-10-30T05:36:10;19.80;;;5.32;;
23390;SDS011;11868;45.606;5.302;2022-10-30T05:38:36;13.82;;;5.07;;
23390;SDS011;11868;45.606;5.302;2022-10-30T05:41:01;14.80;;;4.63;;
23390;SDS011;11868;45.606;5.302;2022-10-30T05:43:26;9.40;;;5.18;;
23390;SDS011;11868;45.606;5.302;2022-10-30T05:45:52;13.50;;;5.18;;
23390;SDS011;11868;45.606;5.302;2022-10-30T05:48:17;16.65;;;5.60;;
23390;SDS011;11868;45.606;5.302;2022-10-30T05:50:42;9.38;;;5.07;;
23390;SDS011;11868;45.606;5.302;2022-10-30T05:53:08;15.40;;;5.63;;
23390;SDS011;11868;45.606;5.302;2022-10-30T05:55:33;13.38;;;5.30;;
23390;SDS011;11868;45.606;5.302;2022-10-30T05:58:00;14.00;;;4.85;;
23390;SDS011;11868;45.606;5.302;2022-10-30T06:00:27;13.57;;;5.03;;
23390;SDS011;11868;45.606;5.302;2022-10-30T06:03:00;10.18;;;5.32;;
23390;SDS011;11868;45.606;5.302;2022-10-30T06:05:28;13.07;;;4.97;;
23390;SDS011;11868;45.606;5.302;2022-10-30T06:07:54;13.50;;;4.85;;
23390;SDS011;11868;45.606;5.302;2022-10-30T06:10:20;15.85;;;5.05;;
23390;SDS011;11868;45.606;5.302;2022-10-30T06:12:56;20.98;;;4.97;;
23390;SDS011;11868;45.606;5.302;2022-10-30T06:15:26;8.70;;;4.80;;
23390;SDS011;11868;45.606;5.302;2022-10-30T06:17:52;18.02;;;5.13;;
23390;SDS011;11868;45.606;5.302;2022-10-30T06:20:18;10.07;;;4.97;;
23390;SDS011;11868;45.606;5.302;2022-10-30T06:22:58;11.95;;;5.18;;
23390;SDS011;11868;45.606;5.302;2022-10-30T06:25:26;10.10;;;5.05;;
23390;SDS011;11868;45.606;5.302;2022-10-30T06:27:52;14.43;;;5.53;;
23390;SDS011;11868;45.606;5.302;2022-10-30T06:30:18;13.57;;;5.40;;
23390;SDS011;11868;45.606;5.302;2022-10-30T06:32:44;17.83;;;5.28;;
23390;SDS011;11868;45.606;5.302;2022-10-30T06:35:09;14.18;;;4.90;;
23390;SDS011;11868;45.606;5.302;2022-10-30T06:37:35;12.60;;;4.95;;
23390;SDS011;11868;45.606;5.302;2022-10-30T06:40:03;15.38;;;5.40;;
23390;SDS011;11868;45.606;5.302;2022-10-30T06:42:30;12.55;;;4.97;;
23390;SDS011;11868;45.606;5.302;2022-10-30T06:44:56;19.10;;;5.05;;
23390;SDS011;11868;45.606;5.302;2022-10-30T06:47:21;17.08;;;5.25;;
23390;SDS011;11868;45.606;5.302;2022-10-30T06:49:47;14.38;;;4.47;;
23390;SDS011;11868;45.606;5.302;2022-10-30T06:52:12;16.45;;;5.15;;
23390;SDS011;11868;45.606;5.302;2022-10-30T06:54:38;13.77;;;5.20;;
23390;SDS011;11868;45.606;5.302;2022-10-30T06:57:03;11.30;;;5.07;;
23390;SDS011;11868;45.606;5.302;2022-10-30T06:59:29;17.02;;;4.65;;
23390;SDS011;11868;45.606;5.302;2022-10-30T07:01:54;12.52;;;4.68;;
23390;SDS011;11868;45.606;5.302;2022-10-30T07:04:20;20.33;;;5.00;;
23390;SDS011;11868;45.606;5.302;2022-10-30T07:06:46;14.40;;;5.20;;
23390;SDS011;11868;45.606;5.302;2022-10-30T07:09:11;16.15;;;4.97;;
23390;SDS011;11868;45.606;5.302;2022-10-30T07:11:36;15.15;;;4.93;;
23390;SDS011;11868;45.606;5.302;2022-10-30T07:14:04;12.40;;;4.25;;
23390;SDS011;11868;45.606;5.302;2022-10-30T07:16:29;15.93;;;4.40;;
23390;SDS011;11868;45.606;5.302;2022-10-30T07:18:54;14.90;;;5.00;;
23390;SDS011;11868;45.606;5.302;2022-10-30T07:21:20;13.63;;;4.50;;
23390;SDS011;11868;45.606;5.302;2022-10-30T07:23:45;13.95;;;4.32;;
23390;SDS011;11868;45.606;5.302;2022-10-30T07:26:11;10.65;;;4.18;;
23390;SDS011;11868;45.606;5.302;2022-10-30T07:28:36;13.43;;;4.55;;
23390;SDS011;11868;45.606;5.302;2022-10-30T07:31:02;21.05;;;5.03;;
23390;SDS011;11868;45.606;5.302;2022-10-30T07:33:27;11.43;;;4.30;;
23390;SDS011;11868;45.606;5.302;2022-10-30T07:35:52;10.73;;;4.15;;
23390;SDS011;11868;45.606;5.302;2022-10-30T07:38:18;15.48;;;4.97;;
23390;SDS011;11868;45.606;5.302;2022-10-30T07:40:43;11.75;;;4.60;;
23390;SDS011;11868;45.606;5.302;2022-10-30T07:43:09;13.23;;;4.65;;
23390;SDS011;11868;45.606;5.302;2022-10-30T07:45:37;14.90;;;4.13;;
23390;SDS011;11868;45.606;5.302;2022-10-30T07:48:03;14.18;;;4.43;;
23390;SDS011;11868;45.606;5.302;2022-10-30T07:50:29;12.13;;;5.05;;
23390;SDS011;11868;45.606;5.302;2022-10-30T07:52:55;11.00;;;4.00;;
23390;SDS011;11868;45.606;5.302;2022-10-30T07:55:20;13.43;;;4.53;;
23390;SDS011;11868;45.606;5.302;2022-10-30T07:57:46;15.93;;;4.47;;
23390;SDS011;11868;45.606;5.302;2022-10-30T08:00:12;10.60;;;4.47;;
23390;SDS011;11868;45.606;5.302;2022-10-30T08:02:38;10.82;;;4.38;;
23390;SDS011;11868;45.606;5.302;2022-10-30T08:05:04;12.02;;;4.25;;
23390;SDS011;11868;45.606;5.302;2022-10-30T08:07:30;11.55;;;3.75;;
23390;SDS011;11868;45.606;5.302;2022-10-30T08:09:56;13.15;;;3.70;;
23390;SDS011;11868;45.606;5.302;2022-10-30T08:12:22;10.73;;;4.30;;
23390;SDS011;11868;45.606;5.302;2022-10-30T08:14:47;15.70;;;4.20;;
23390;SDS011;11868;45.606;5.302;2022-10-30T08:17:13;16.27;;;4.28;;
23390;SDS011;11868;45.606;5.302;2022-10-30T08:19:38;17.58;;;3.90;;
23390;SDS011;11868;45.606;5.302;2022-10-30T08:22:04;18.40;;;4.57;;
23390;SDS011;11868;45.606;5.302;2022-10-30T08:24:29;11.27;;;4.15;;
23390;SDS011;11868;45.606;5.302;2022-10-30T08:26:55;12.80;;;4.38;;
23390;SDS011;11868;45.606;5.302;2022-10-30T08:29:20;13.63;;;4.32;;
23390;SDS011;11868;45.606;5.302;2022-10-30T08:31:49;13.90;;;4.60;;
23390;SDS011;11868;45.606;5.302;2022-10-30T08:34:15;14.43;;;4.03;;
23390;SDS011;11868;45.606;5.302;2022-10-30T08:36:40;12.45;;;4.20;;
23390;SDS011;11868;45.606;5.302;2022-10-30T08:39:07;11.20;;;4.13;;
23390;SDS011;11868;45.606;5.302;2022-10-30T08:41:32;9.98;;;4.00;;
23390;SDS011;11868;45.606;5.302;2022-10-30T08:43:57;10.85;;;4.20;;
23390;SDS011;11868;45.606;5.302;2022-10-30T08:46:23;14.77;;;4.10;;
23390;SDS011;11868;45.606;5.302;2022-10-30T08:48:48;9.77;;;3.90;;
23390;SDS011;11868;45.606;5.302;2022-10-30T08:51:14;12.77;;;4.90;;
23390;SDS011;11868;45.606;5.302;2022-10-30T08:53:39;13.93;;;4.10;;
23390;SDS011;11868;45.606;5.302;2022-10-30T08:56:04;15.90;;;4.03;;
23390;SDS011;11868;45.606;5.302;2022-10-30T08:58:30;18.73;;;4.75;;
23390;SDS011;11868;45.606;5.302;2022-10-30T09:00:55;9.25;;;3.55;;
23390;SDS011;11868;45.606;5.302;2022-10-30T09:03:21;8.50;;;4.07;;
23390;SDS011;11868;45.606;5.302;2022-10-30T09:05:46;16.25;;;4.38;;
23390;SDS011;11868;45.606;5.302;2022-10-30T09:08:11;8.63;;;3.40;;
23390;SDS011;11868;45.606;5.302;2022-10-30T09:10:37;8.80;;;4.03;;
23390;SDS011;11868;45.606;5.302;2022-10-30T09:13:02;16.92;;;4.20;;
23390;SDS011;11868;45.606;5.302;2022-10-30T09:15:28;11.80;;;3.88;;
23390;SDS011;11868;45.606;5.302;2022-10-30T09:17:54;9.48;;;3.45;;
23390;SDS011;11868;45.606;5.302;2022-10-30T09:20:20;14.27;;;3.85;;
23390;SDS011;11868;45.606;5.302;2022-10-30T09:22:45;10.70;;;3.83;;
23390;SDS011;11868;45.606;5.302;2022-10-30T09:25:11;11.27;;;3.70;;
23390;SDS011;11868;45.606;5.302;2022-10-30T09:27:39;12.77;;;4.03;;
23390;SDS011;11868;45.606;5.302;2022-10-30T09:30:05;18.63;;;4.32;;
23390;SDS011;11868;45.606;5.302;2022-10-30T09:32:31;14.15;;;4.03;;
23390;SDS011;11868;45.606;5.302;2022-10-30T09:34:56;14.50;;;4.43;;
23390;SDS011;11868;45.606;5.302;2022-10-30T09:37:21;12.20;;;4.47;;
23390;SDS011;11868;45.606;5.302;2022-10-30T09:39:51;11.63;;;3.40;;
23390;SDS011;11868;45.606;5.302;2022-10-30T09:50:39;10.50;;;3.83;;
23390;SDS011;11868;45.606;5.302;2022-10-30T09:56:20;15.75;;;3.85;;
23390;SDS011;11868;45.606;5.302;2022-10-30T10:07:44;10.90;;;3.58;;
23390;SDS011;11868;45.606;5.302;2022-10-30T10:10:31;11.82;;;3.80;;
23390;SDS011;11868;45.606;5.302;2022-10-30T10:13:02;16.92;;;4.22;;
23390;SDS011;11868;45.606;5.302;2022-10-30T10:15:44;11.82;;;3.70;;
23390;SDS011;11868;45.606;5.302;2022-10-30T10:18:18;9.85;;;3.78;;
23390;SDS011;11868;45.606;5.302;2022-10-30T10:20:49;12.20;;;3.63;;
23390;SDS011;11868;45.606;5.302;2022-10-30T10:23:35;12.60;;;3.53;;
23390;SDS011;11868;45.606;5.302;2022-10-30T10:26:09;12.02;;;3.80;;
23390;SDS011;11868;45.606;5.302;2022-10-30T10:31:29;11.15;;;4.28;;
23390;SDS011;11868;45.606;5.302;2022-10-30T10:37:11;11.70;;;3.20;;
23390;SDS011;11868;45.606;5.302;2022-10-30T10:53:44;13.07;;;3.30;;
23390;SDS011;11868;45.606;5.302;2022-10-30T10:56:16;20.95;;;3.55;;
23390;SDS011;11868;45.606;5.302;2022-10-30T11:01:11;11.60;;;3.40;;
23390;SDS011;11868;45.606;5.302;2022-10-30T11:06:23;13.05;;;3.28;;
23390;SDS011;11868;45.606;5.302;2022-10-30T11:09:10;13.82;;;3.13;;
23390;SDS011;11868;45.606;5.302;2022-10-30T11:11:40;8.82;;;3.05;;
23390;SDS011;11868;45.606;5.302;2022-10-30T11:14:10;11.82;;;3.10;;
23390;SDS011;11868;45.606;5.302;2022-10-30T11:19:45;8.45;;;2.90;;
23390;SDS011;11868;45.606;5.302;2022-10-30T11:22:24;20.30;;;8.10;;
23390;SDS011;11868;45.606;5.302;2022-10-30T11:24:53;12.27;;;3.97;;
23390;SDS011;11868;45.606;5.302;2022-10-30T11:29:59;8.43;;;3.38;;
23390;SDS011;11868;45.606;5.302;2022-10-30T11:32:27;10.63;;;3.30;;
23390;SDS011;11868;45.606;5.302;2022-10-30T11:37:34;9.70;;;2.80;;
23390;SDS011;11868;45.606;5.302;2022-10-30T11:40:14;10.98;;;3.10;;
23390;SDS011;11868;45.606;5.302;2022-10-30T11:42:54;9.43;;;3.10;;
23390;SDS011;11868;45.606;5.302;2022-10-30T11:45:23;7.93;;;3.13;;
23390;SDS011;11868;45.606;5.302;2022-10-30T11:47:51;7.95;;;3.55;;
23390;SDS011;11868;45.606;5.302;2022-10-30T11:53:11;12.85;;;3.38;;
23390;SDS011;11868;45.606;5.302;2022-10-30T11:55:56;9.85;;;3.78;;
23390;SDS011;11868;45.606;5.302;2022-10-30T12:04:26;15.02;;;3.45;;
23390;SDS011;11868;45.606;5.302;2022-10-30T12:17:21;14.43;;;3.40;;
23390;SDS011;11868;45.606;5.302;2022-10-30T12:20:23;11.48;;;2.97;;
23390;SDS011;11868;45.606;5.302;2022-10-30T12:23:39;11.35;;;3.22;;
23390;SDS011;11868;45.606;5.302;2022-10-30T12:26:39;11.07;;;3.50;;
23390;SDS011;11868;45.606;5.302;2022-10-30T12:33:28;14.82;;;3.67;;
23390;SDS011;11868;45.606;5.302;2022-10-30T12:36:26;17.30;;;4.05;;
23390;SDS011;11868;45.606;5.302;2022-10-30T12:48:40;10.93;;;3.70;;
23390;SDS011;11868;45.606;5.302;2022-10-30T12:51:34;10.13;;;3.53;;
23390;SDS011;11868;45.606;5.302;2022-10-30T13:00:35;13.65;;;4.10;;
23390;SDS011;11868;45.606;5.302;2022-10-30T13:04:04;12.70;;;3.33;;
23390;SDS011;11868;45.606;5.302;2022-10-30T13:06:56;13.32;;;3.50;;
23390;SDS011;11868;45.606;5.302;2022-10-30T13:12:11;14.73;;;3.97;;
23390;SDS011;11868;45.606;5.302;2022-10-30T13:14:46;18.55;;;3.70;;
23390;SDS011;11868;45.606;5.302;2022-10-30T13:17:17;10.15;;;3.35;;
23390;SDS011;11868;45.606;5.302;2022-10-30T13:19:46;11.60;;;3.50;;
23390;SDS011;11868;45.606;5.302;2022-10-30T13:22:24;16.48;;;3.63;;
23390;SDS011;11868;45.606;5.302;2022-10-30T13:25:05;12.85;;;3.55;;
23390;SDS011;11868;45.606;5.302;2022-10-30T13:27:54;11.93;;;4.32;;
23390;SDS011;11868;45.606;5.302;2022-10-30T13:30:33;15.05;;;4.28;;
23390;SDS011;11868;45.606;5.302;2022-10-30T13:35:47;13.75;;;3.80;;
23390;SDS011;11868;45.606;5.302;2022-10-30T13:53:04;10.98;;;3.40;;
23390;SDS011;11868;45.606;5.302;2022-10-30T13:55:39;10.10;;;3.38;;
23390;SDS011;11868;45.606;5.302;2022-10-30T13:58:21;8.95;;;3.30;;
23390;SDS011;11868;45.606;5.302;2022-10-30T14:05:52;16.42;;;3.95;;
23390;SDS011;11868;45.606;5.302;2022-10-30T14:08:31;15.27;;;4.07;;
23390;SDS011;11868;45.606;5.302;2022-10-30T14:11:00;14.02;;;3.65;;
23390;SDS011;11868;45.606;5.302;2022-10-30T14:23:38;13.52;;;4.18;;
23390;SDS011;11868;45.606;5.302;2022-10-30T14:30:03;18.30;;;4.05;;
23390;SDS011;11868;45.606;5.302;2022-10-30T14:33:32;16.35;;;4.38;;
23390;SDS011;11868;45.606;5.302;2022-10-30T14:40:30;14.48;;;4.00;;
23390;SDS011;11868;45.606;5.302;2022-10-30T14:50:09;15.32;;;3.58;;
23390;SDS011;11868;45.606;5.302;2022-10-30T14:53:19;20.27;;;3.95;;
23390;SDS011;11868;45.606;5.302;2022-10-30T14:56:34;15.13;;;4.18;;
23390;SDS011;11868;45.606;5.302;2022-10-30T14:59:29;13.70;;;4.00;;
23390;SDS011;11868;45.606;5.302;2022-10-30T15:15:28;13.18;;;4.03;;
23390;SDS011;11868;45.606;5.302;2022-10-30T15:18:16;14.75;;;4.05;;
23390;SDS011;11868;45.606;5.302;2022-10-30T15:23:46;12.60;;;4.15;;
23390;SDS011;11868;45.606;5.302;2022-10-30T15:26:46;14.93;;;4.22;;
23390;SDS011;11868;45.606;5.302;2022-10-30T15:33:27;13.60;;;3.63;;
23390;SDS011;11868;45.606;5.302;2022-10-30T15:36:14;14.27;;;4.38;;
23390;SDS011;11868;45.606;5.302;2022-10-30T15:39:14;15.60;;;4.18;;
23390;SDS011;11868;45.606;5.302;2022-10-30T15:41:56;15.38;;;3.70;;
23390;SDS011;11868;45.606;5.302;2022-10-30T15:45:11;16.63;;;4.05;;
23390;SDS011;11868;45.606;5.302;2022-10-30T15:48:39;11.05;;;3.88;;
23390;SDS011;11868;45.606;5.302;2022-10-30T15:57:44;18.80;;;4.00;;
23390;SDS011;11868;45.606;5.302;2022-10-30T16:07:01;11.45;;;3.45;;
23390;SDS011;11868;45.606;5.302;2022-10-30T16:20:39;14.95;;;3.78;;
23390;SDS011;11868;45.606;5.302;2022-10-30T16:23:50;11.48;;;3.95;;
23390;SDS011;11868;45.606;5.302;2022-10-30T16:27:00;16.10;;;3.65;;
23390;SDS011;11868;45.606;5.302;2022-10-30T16:30:19;10.93;;;3.58;;
23390;SDS011;11868;45.606;5.302;2022-10-30T16:33:11;17.60;;;4.32;;
23390;SDS011;11868;45.606;5.302;2022-10-30T16:35:42;14.77;;;3.95;;
23390;SDS011;11868;45.606;5.302;2022-10-30T16:38:10;11.70;;;3.38;;
23390;SDS011;11868;45.606;5.302;2022-10-30T16:40:41;12.40;;;3.67;;
23390;SDS011;11868;45.606;5.302;2022-10-30T16:48:38;12.20;;;3.55;;
23390;SDS011;11868;45.606;5.302;2022-10-30T16:51:12;14.38;;;4.10;;
23390;SDS011;11868;45.606;5.302;2022-10-30T16:53:40;12.95;;;3.53;;
23390;SDS011;11868;45.606;5.302;2022-10-30T16:56:33;13.00;;;3.55;;
23390;SDS011;11868;45.606;5.302;2022-10-30T16:59:11;15.52;;;4.57;;
23390;SDS011;11868;45.606;5.302;2022-10-30T17:01:39;11.40;;;4.32;;
23390;SDS011;11868;45.606;5.302;2022-10-30T17:04:04;11.43;;;3.72;;
23390;SDS011;11868;45.606;5.302;2022-10-30T17:06:40;14.23;;;3.70;;
23390;SDS011;11868;45.606;5.302;2022-10-30T17:09:21;15.20;;;4.05;;
23390;SDS011;11868;45.606;5.302;2022-10-30T17:14:26;11.20;;;3.60;;
23390;SDS011;11868;45.606;5.302;2022-10-30T17:16:53;10.93;;;3.38;;
23390;SDS011;11868;45.606;5.302;2022-10-30T17:21:54;18.27;;;4.07;;
23390;SDS011;11868;45.606;5.302;2022-10-30T17:24:22;14.60;;;3.70;;
23390;SDS011;11868;45.606;5.302;2022-10-30T17:27:00;13.40;;;3.28;;
23390;SDS011;11868;45.606;5.302;2022-10-30T17:32:13;8.85;;;3.45;;
23390;SDS011;11868;45.606;5.302;2022-10-30T17:34:42;10.77;;;3.58;;
23390;SDS011;11868;45.606;5.302;2022-10-30T17:37:08;14.45;;;3.40;;
23390;SDS011;11868;45.606;5.302;2022-10-30T17:39:33;10.18;;;3.60;;
23390;SDS011;11868;45.606;5.302;2022-10-30T17:41:58;16.50;;;3.78;;
23390;SDS011;11868;45.606;5.302;2022-10-30T17:44:24;13.20;;;3.70;;
23390;SDS011;11868;45.606;5.302;2022-10-30T17:46:59;8.65;;;3.75;;
23390;SDS011;11868;45.606;5.302;2022-10-30T17:51:53;17.55;;;4.78;;
23390;SDS011;11868;45.606;5.302;2022-10-30T17:54:19;20.40;;;6.03;;
23390;SDS011;11868;45.606;5.302;2022-10-30T17:56:45;22.42;;;6.47;;
23390;SDS011;11868;45.606;5.302;2022-10-30T17:59:10;23.90;;;6.25;;
23390;SDS011;11868;45.606;5.302;2022-10-30T18:01:35;20.92;;;5.38;;
23390;SDS011;11868;45.606;5.302;2022-10-30T18:04:01;18.88;;;5.30;;
23390;SDS011;11868;45.606;5.302;2022-10-30T18:06:28;20.90;;;5.70;;
23390;SDS011;11868;45.606;5.302;2022-10-30T18:08:54;18.92;;;5.75;;
23390;SDS011;11868;45.606;5.302;2022-10-30T18:11:20;20.88;;;5.85;;
23390;SDS011;11868;45.606;5.302;2022-10-30T18:13:48;12.40;;;4.87;;
23390;SDS011;11868;45.606;5.302;2022-10-30T18:16:16;15.20;;;4.60;;
23390;SDS011;11868;45.606;5.302;2022-10-30T18:18:42;17.48;;;5.03;;
23390;SDS011;11868;45.606;5.302;2022-10-30T18:21:13;14.13;;;5.00;;
23390;SDS011;11868;45.606;5.302;2022-10-30T18:23:39;13.88;;;4.20;;
23390;SDS011;11868;45.606;5.302;2022-10-30T18:26:05;12.40;;;3.92;;
23390;SDS011;11868;45.606;5.302;2022-10-30T18:28:31;17.20;;;4.60;;
23390;SDS011;11868;45.606;5.302;2022-10-30T18:30:56;15.30;;;4.93;;
23390;SDS011;11868;45.606;5.302;2022-10-30T18:33:22;14.32;;;4.78;;
23390;SDS011;11868;45.606;5.302;2022-10-30T18:35:48;12.07;;;4.63;;
23390;SDS011;11868;45.606;5.302;2022-10-30T18:38:14;15.63;;;4.30;;
23390;SDS011;11868;45.606;5.302;2022-10-30T18:40:41;12.77;;;4.40;;